sensor_id;sensor_type;location;lat;lon;timestamp;temperature;humidity
4739;DHT22;2383;48.632;10.156;2022-07-29T00:03:24;24.60;99.90
4739;DHT22;2383;48.632;10.156;2022-07-29T00:07:26;24.80;99.90
4739;DHT22;2383;48.632;10.156;2022-07-29T00:11:28;24.80;99.90
4739;DHT22;2383;48.632;10.156;2022-07-29T00:15:30;24.90;99.90
4739;DHT22;2383;48.632;10.156;2022-07-29T00:19:31;24.60;99.90
4739;DHT22;2383;48.632;10.156;2022-07-29T00:23:33;24.70;99.90
4739;DHT22;2383;48.632;10.156;2022-07-29T00:27:37;24.40;99.90
4739;DHT22;2383;48.632;10.156;2022-07-29T00:31:39;24.40;99.90
4739;DHT22;2383;48.632;10.156;2022-07-29T00:35:41;24.20;99.90
4739;DHT22;2383;48.632;10.156;2022-07-29T00:39:45;24.10;99.90
4739;DHT22;2383;48.632;10.156;2022-07-29T00:43:47;24.50;99.90
4739;DHT22;2383;48.632;10.156;2022-07-29T00:47:49;24.70;99.80
4739;DHT22;2383;48.632;10.156;2022-07-29T00:51:51;24.50;99.90
4739;DHT22;2383;48.632;10.156;2022-07-29T00:55:54;24.50;99.90
4739;DHT22;2383;48.632;10.156;2022-07-29T00:59:56;24.60;99.90
4739;DHT22;2383;48.632;10.156;2022-07-29T01:03:58;24.70;99.90
4739;DHT22;2383;48.632;10.156;2022-07-29T01:08:00;24.70;99.90
4739;DHT22;2383;48.632;10.156;2022-07-29T01:12:04;24.80;99.90
4739;DHT22;2383;48.632;10.156;2022-07-29T01:16:21;24.60;99.90
4739;DHT22;2383;48.632;10.156;2022-07-29T01:29:58;24.00;99.90
4739;DHT22;2383;48.632;10.156;2022-07-29T01:34:03;23.50;99.90
4739;DHT22;2383;48.632;10.156;2022-07-29T01:38:14;23.90;99.90
4739;DHT22;2383;48.632;10.156;2022-07-29T01:42:27;23.10;99.90
4739;DHT22;2383;48.632;10.156;2022-07-29T01:46:34;23.30;99.90
4739;DHT22;2383;48.632;10.156;2022-07-29T01:50:44;23.60;99.90
4739;DHT22;2383;48.632;10.156;2022-07-29T01:54:55;24.00;99.90
4739;DHT22;2383;48.632;10.156;2022-07-29T01:58:59;24.30;99.90
4739;DHT22;2383;48.632;10.156;2022-07-29T02:03:07;23.90;99.90
4739;DHT22;2383;48.632;10.156;2022-07-29T02:07:13;23.60;99.90
4739;DHT22;2383;48.632;10.156;2022-07-29T02:11:17;23.10;99.90
4739;DHT22;2383;48.632;10.156;2022-07-29T02:15:19;23.50;99.90
4739;DHT22;2383;48.632;10.156;2022-07-29T02:19:23;23.60;99.90
4739;DHT22;2383;48.632;10.156;2022-07-29T02:23:27;23.50;99.90
4739;DHT22;2383;48.632;10.156;2022-07-29T02:27:30;24.00;99.90
4739;DHT22;2383;48.632;10.156;2022-07-29T02:31:36;23.80;99.90
4739;DHT22;2383;48.632;10.156;2022-07-29T02:35:41;24.10;99.90
4739;DHT22;2383;48.632;10.156;2022-07-29T02:39:45;24.00;99.90
4739;DHT22;2383;48.632;10.156;2022-07-29T02:43:53;23.70;99.90
4739;DHT22;2383;48.632;10.156;2022-07-29T02:47:58;24.00;99.90
4739;DHT22;2383;48.632;10.156;2022-07-29T02:52:20;23.90;99.90
4739;DHT22;2383;48.632;10.156;2022-07-29T02:56:28;23.50;99.90
4739;DHT22;2383;48.632;10.156;2022-07-29T03:00:38;22.90;99.90
4739;DHT22;2383;48.632;10.156;2022-07-29T03:04:42;23.30;99.90
4739;DHT22;2383;48.632;10.156;2022-07-29T03:08:45;23.60;99.90
4739;DHT22;2383;48.632;10.156;2022-07-29T03:12:48;23.50;99.90
4739;DHT22;2383;48.632;10.156;2022-07-29T03:16:50;23.00;99.90
4739;DHT22;2383;48.632;10.156;2022-07-29T03:20:53;23.20;99.90
4739;DHT22;2383;48.632;10.156;2022-07-29T03:24:55;22.60;99.90
4739;DHT22;2383;48.632;10.156;2022-07-29T03:28:57;22.00;99.90
4739;DHT22;2383;48.632;10.156;2022-07-29T03:33:00;22.00;99.90
4739;DHT22;2383;48.632;10.156;2022-07-29T03:37:03;22.60;99.90
4739;DHT22;2383;48.632;10.156;2022-07-29T03:41:10;23.00;99.90
4739;DHT22;2383;48.632;10.156;2022-07-29T03:45:16;23.40;99.90
4739;DHT22;2383;48.632;10.156;2022-07-29T03:49:20;23.30;99.90
4739;DHT22;2383;48.632;10.156;2022-07-29T03:53:23;22.40;99.90
4739;DHT22;2383;48.632;10.156;2022-07-29T03:57:27;22.50;99.90
4739;DHT22;2383;48.632;10.156;2022-07-29T04:01:29;22.60;99.90
4739;DHT22;2383;48.632;10.156;2022-07-29T04:05:33;22.90;99.90
4739;DHT22;2383;48.632;10.156;2022-07-29T04:09:35;23.20;99.90
4739;DHT22;2383;48.632;10.156;2022-07-29T04:13:37;23.30;99.90
4739;DHT22;2383;48.632;10.156;2022-07-29T04:17:40;23.10;99.90
4739;DHT22;2383;48.632;10.156;2022-07-29T04:21:42;23.40;99.90
4739;DHT22;2383;48.632;10.156;2022-07-29T04:25:45;23.30;99.90
4739;DHT22;2383;48.632;10.156;2022-07-29T04:29:47;23.20;99.90
4739;DHT22;2383;48.632;10.156;2022-07-29T04:33:57;22.70;99.90
4739;DHT22;2383;48.632;10.156;2022-07-29T04:37:59;22.70;99.90
4739;DHT22;2383;48.632;10.156;2022-07-29T04:42:01;22.90;99.90
4739;DHT22;2383;48.632;10.156;2022-07-29T04:46:03;22.90;99.90
4739;DHT22;2383;48.632;10.156;2022-07-29T04:50:08;22.80;99.90
4739;DHT22;2383;48.632;10.156;2022-07-29T04:54:10;23.00;99.90
4739;DHT22;2383;48.632;10.156;2022-07-29T04:58:12;22.80;99.90
4739;DHT22;2383;48.632;10.156;2022-07-29T05:02:14;23.00;99.90
4739;DHT22;2383;48.632;10.156;2022-07-29T05:06:16;22.90;99.90
4739;DHT22;2383;48.632;10.156;2022-07-29T05:10:17;23.20;99.90
4739;DHT22;2383;48.632;10.156;2022-07-29T05:14:19;23.50;99.90
4739;DHT22;2383;48.632;10.156;2022-07-29T05:18:21;22.90;99.90
4739;DHT22;2383;48.632;10.156;2022-07-29T05:22:26;22.50;99.90
4739;DHT22;2383;48.632;10.156;2022-07-29T05:26:28;22.50;99.90
4739;DHT22;2383;48.632;10.156;2022-07-29T05:30:30;22.80;99.90
4739;DHT22;2383;48.632;10.156;2022-07-29T05:34:32;23.50;99.90
4739;DHT22;2383;48.632;10.156;2022-07-29T05:38:36;24.10;99.90
4739;DHT22;2383;48.632;10.156;2022-07-29T05:42:38;24.40;99.90
4739;DHT22;2383;48.632;10.156;2022-07-29T05:46:40;24.50;99.90
4739;DHT22;2383;48.632;10.156;2022-07-29T05:50:42;24.10;99.90
4739;DHT22;2383;48.632;10.156;2022-07-29T05:54:45;24.20;99.90
4739;DHT22;2383;48.632;10.156;2022-07-29T05:58:47;24.00;99.90
4739;DHT22;2383;48.632;10.156;2022-07-29T06:02:49;24.30;99.90
4739;DHT22;2383;48.632;10.156;2022-07-29T06:06:51;24.20;99.90
4739;DHT22;2383;48.632;10.156;2022-07-29T06:10:53;24.40;99.90
4739;DHT22;2383;48.632;10.156;2022-07-29T06:14:55;24.50;99.90
4739;DHT22;2383;48.632;10.156;2022-07-29T06:18:56;24.80;99.90
4739;DHT22;2383;48.632;10.156;2022-07-29T06:23:00;24.80;99.90
4739;DHT22;2383;48.632;10.156;2022-07-29T06:27:02;24.80;99.90
4739;DHT22;2383;48.632;10.156;2022-07-29T06:31:05;25.00;99.90
4739;DHT22;2383;48.632;10.156;2022-07-29T06:35:10;25.00;99.90
4739;DHT22;2383;48.632;10.156;2022-07-29T06:39:34;24.90;99.90
4739;DHT22;2383;48.632;10.156;2022-07-29T06:43:40;25.00;99.90
4739;DHT22;2383;48.632;10.156;2022-07-29T06:47:53;25.30;99.90
4739;DHT22;2383;48.632;10.156;2022-07-29T06:51:55;24.90;99.80
4739;DHT22;2383;48.632;10.156;2022-07-29T06:55:58;24.60;99.90
4739;DHT22;2383;48.632;10.156;2022-07-29T07:00:01;25.20;99.90
4739;DHT22;2383;48.632;10.156;2022-07-29T07:04:03;25.50;99.70
4739;DHT22;2383;48.632;10.156;2022-07-29T07:08:05;25.70;99.90
4739;DHT22;2383;48.632;10.156;2022-07-29T07:12:07;25.80;99.90
4739;DHT22;2383;48.632;10.156;2022-07-29T07:16:09;26.00;99.30
4739;DHT22;2383;48.632;10.156;2022-07-29T07:20:11;25.90;99.80
4739;DHT22;2383;48.632;10.156;2022-07-29T07:24:13;25.70;99.90
4739;DHT22;2383;48.632;10.156;2022-07-29T07:28:16;25.30;99.40
4739;DHT22;2383;48.632;10.156;2022-07-29T07:32:18;25.40;99.90
4739;DHT22;2383;48.632;10.156;2022-07-29T07:36:20;25.50;99.90
4739;DHT22;2383;48.632;10.156;2022-07-29T07:40:22;25.90;99.50
4739;DHT22;2383;48.632;10.156;2022-07-29T07:44:23;26.20;99.50
4739;DHT22;2383;48.632;10.156;2022-07-29T07:52:50;26.10;99.20
4739;DHT22;2383;48.632;10.156;2022-07-29T07:56:52;25.80;98.30
4739;DHT22;2383;48.632;10.156;2022-07-29T08:00:54;25.70;98.80
4739;DHT22;2383;48.632;10.156;2022-07-29T08:04:56;25.90;98.60
4739;DHT22;2383;48.632;10.156;2022-07-29T08:08:57;25.90;98.80
4739;DHT22;2383;48.632;10.156;2022-07-29T08:13:21;25.20;98.90
4739;DHT22;2383;48.632;10.156;2022-07-29T08:17:23;25.60;98.60
4739;DHT22;2383;48.632;10.156;2022-07-29T08:21:25;26.00;99.50
4739;DHT22;2383;48.632;10.156;2022-07-29T08:25:27;25.90;99.20
4739;DHT22;2383;48.632;10.156;2022-07-29T08:29:29;25.90;99.00
4739;DHT22;2383;48.632;10.156;2022-07-29T08:33:31;26.10;99.30
4739;DHT22;2383;48.632;10.156;2022-07-29T08:37:33;26.30;98.50
4739;DHT22;2383;48.632;10.156;2022-07-29T08:41:35;26.80;98.10
4739;DHT22;2383;48.632;10.156;2022-07-29T08:45:45;26.90;98.00
4739;DHT22;2383;48.632;10.156;2022-07-29T08:49:49;26.70;97.80
4739;DHT22;2383;48.632;10.156;2022-07-29T08:53:51;26.40;98.80
4739;DHT22;2383;48.632;10.156;2022-07-29T08:57:55;26.30;98.70
4739;DHT22;2383;48.632;10.156;2022-07-29T09:01:58;25.90;98.50
4739;DHT22;2383;48.632;10.156;2022-07-29T09:06:02;26.20;98.30
4739;DHT22;2383;48.632;10.156;2022-07-29T09:10:05;26.40;99.30
4739;DHT22;2383;48.632;10.156;2022-07-29T09:14:08;26.60;99.00
4739;DHT22;2383;48.632;10.156;2022-07-29T09:18:12;27.20;98.30
4739;DHT22;2383;48.632;10.156;2022-07-29T09:22:31;27.00;97.70
4739;DHT22;2383;48.632;10.156;2022-07-29T09:26:41;26.20;98.20
4739;DHT22;2383;48.632;10.156;2022-07-29T09:30:56;26.30;98.50
4739;DHT22;2383;48.632;10.156;2022-07-29T09:35:21;26.60;98.60
4739;DHT22;2383;48.632;10.156;2022-07-29T09:39:31;27.10;98.00
4739;DHT22;2383;48.632;10.156;2022-07-29T09:43:34;27.30;98.50
4739;DHT22;2383;48.632;10.156;2022-07-29T09:47:44;27.30;98.40
4739;DHT22;2383;48.632;10.156;2022-07-29T09:51:47;27.10;97.80
4739;DHT22;2383;48.632;10.156;2022-07-29T09:55:50;27.00;97.70
4739;DHT22;2383;48.632;10.156;2022-07-29T10:04:04;27.50;97.40
4739;DHT22;2383;48.632;10.156;2022-07-29T10:08:06;27.50;97.60
4739;DHT22;2383;48.632;10.156;2022-07-29T10:12:13;28.00;96.60
4739;DHT22;2383;48.632;10.156;2022-07-29T10:16:17;28.00;96.90
4739;DHT22;2383;48.632;10.156;2022-07-29T10:20:21;28.00;96.70
4739;DHT22;2383;48.632;10.156;2022-07-29T10:24:28;28.40;95.70
4739;DHT22;2383;48.632;10.156;2022-07-29T10:28:31;28.60;95.90
4739;DHT22;2383;48.632;10.156;2022-07-29T10:37:13;28.30;95.00
4739;DHT22;2383;48.632;10.156;2022-07-29T10:45:32;27.90;96.40
4739;DHT22;2383;48.632;10.156;2022-07-29T10:49:35;28.00;99.90
4739;DHT22;2383;48.632;10.156;2022-07-29T10:53:52;28.30;99.90
4739;DHT22;2383;48.632;10.156;2022-07-29T10:58:18;28.20;99.90
4739;DHT22;2383;48.632;10.156;2022-07-29T11:15:22;26.70;99.90
4739;DHT22;2383;48.632;10.156;2022-07-29T11:19:29;24.50;99.90
4739;DHT22;2383;48.632;10.156;2022-07-29T11:23:34;23.80;99.90
4739;DHT22;2383;48.632;10.156;2022-07-29T11:27:44;22.50;99.90
4739;DHT22;2383;48.632;10.156;2022-07-29T11:31:50;21.40;99.90
4739;DHT22;2383;48.632;10.156;2022-07-29T11:36:13;21.00;99.90
4739;DHT22;2383;48.632;10.156;2022-07-29T11:40:18;21.70;99.90
4739;DHT22;2383;48.632;10.156;2022-07-29T11:49:26;22.40;99.90
4739;DHT22;2383;48.632;10.156;2022-07-29T11:53:33;22.00;99.90
4739;DHT22;2383;48.632;10.156;2022-07-29T11:57:37;22.10;99.90
4739;DHT22;2383;48.632;10.156;2022-07-29T12:01:52;23.20;99.90
4739;DHT22;2383;48.632;10.156;2022-07-29T12:06:15;23.70;99.90
4739;DHT22;2383;48.632;10.156;2022-07-29T12:10:19;23.60;99.90
4739;DHT22;2383;48.632;10.156;2022-07-29T12:14:32;22.70;99.90
4739;DHT22;2383;48.632;10.156;2022-07-29T12:18:35;22.40;99.90
4739;DHT22;2383;48.632;10.156;2022-07-29T12:22:40;21.70;99.90
4739;DHT22;2383;48.632;10.156;2022-07-29T12:26:57;21.60;99.90
4739;DHT22;2383;48.632;10.156;2022-07-29T12:31:00;21.80;99.90
4739;DHT22;2383;48.632;10.156;2022-07-29T12:35:11;21.90;99.90
4739;DHT22;2383;48.632;10.156;2022-07-29T12:39:18;20.10;99.90
4739;DHT22;2383;48.632;10.156;2022-07-29T12:43:24;19.80;99.90
4739;DHT22;2383;48.632;10.156;2022-07-29T12:47:27;20.90;99.90
4739;DHT22;2383;48.632;10.156;2022-07-29T12:51:34;21.30;99.90
4739;DHT22;2383;48.632;10.156;2022-07-29T12:55:55;21.50;99.90
4739;DHT22;2383;48.632;10.156;2022-07-29T13:00:08;22.30;99.90
4739;DHT22;2383;48.632;10.156;2022-07-29T13:04:24;22.70;99.90
4739;DHT22;2383;48.632;10.156;2022-07-29T13:08:27;22.70;99.90
4739;DHT22;2383;48.632;10.156;2022-07-29T13:12:30;22.30;99.90
4739;DHT22;2383;48.632;10.156;2022-07-29T13:16:32;22.50;99.90
4739;DHT22;2383;48.632;10.156;2022-07-29T13:20:34;23.20;99.90
4739;DHT22;2383;48.632;10.156;2022-07-29T13:28:50;22.70;99.90
4739;DHT22;2383;48.632;10.156;2022-07-29T13:32:52;22.90;99.90
4739;DHT22;2383;48.632;10.156;2022-07-29T13:36:54;22.60;99.90
4739;DHT22;2383;48.632;10.156;2022-07-29T13:40:56;22.30;99.90
4739;DHT22;2383;48.632;10.156;2022-07-29T13:44:59;22.70;99.90
4739;DHT22;2383;48.632;10.156;2022-07-29T13:49:01;22.80;99.90
4739;DHT22;2383;48.632;10.156;2022-07-29T13:53:03;23.00;99.90
4739;DHT22;2383;48.632;10.156;2022-07-29T13:57:05;23.50;99.90
4739;DHT22;2383;48.632;10.156;2022-07-29T14:01:07;23.00;99.90
4739;DHT22;2383;48.632;10.156;2022-07-29T14:05:10;23.50;99.90
4739;DHT22;2383;48.632;10.156;2022-07-29T14:09:12;23.80;99.90
4739;DHT22;2383;48.632;10.156;2022-07-29T14:13:14;23.70;99.90
4739;DHT22;2383;48.632;10.156;2022-07-29T14:17:26;23.70;99.90
4739;DHT22;2383;48.632;10.156;2022-07-29T14:21:28;24.00;99.90
4739;DHT22;2383;48.632;10.156;2022-07-29T14:25:32;23.80;99.90
4739;DHT22;2383;48.632;10.156;2022-07-29T14:29:35;23.30;99.90
4739;DHT22;2383;48.632;10.156;2022-07-29T14:33:38;23.60;99.90
4739;DHT22;2383;48.632;10.156;2022-07-29T14:37:41;23.50;99.90
4739;DHT22;2383;48.632;10.156;2022-07-29T14:41:43;23.50;99.90
4739;DHT22;2383;48.632;10.156;2022-07-29T14:45:45;22.60;99.90
4739;DHT22;2383;48.632;10.156;2022-07-29T14:49:47;22.70;99.90
4739;DHT22;2383;48.632;10.156;2022-07-29T14:53:49;23.30;99.90
4739;DHT22;2383;48.632;10.156;2022-07-29T14:57:51;23.70;99.90
4739;DHT22;2383;48.632;10.156;2022-07-29T15:02:03;23.80;99.90
4739;DHT22;2383;48.632;10.156;2022-07-29T15:06:05;23.90;99.90
4739;DHT22;2383;48.632;10.156;2022-07-29T15:10:08;23.90;99.90
4739;DHT22;2383;48.632;10.156;2022-07-29T15:14:15;24.40;99.90
4739;DHT22;2383;48.632;10.156;2022-07-29T15:18:17;24.60;99.90
4739;DHT22;2383;48.632;10.156;2022-07-29T15:22:26;24.80;99.90
4739;DHT22;2383;48.632;10.156;2022-07-29T15:26:28;24.90;99.90
4739;DHT22;2383;48.632;10.156;2022-07-29T15:30:30;25.00;99.90
4739;DHT22;2383;48.632;10.156;2022-07-29T15:34:36;25.10;99.90
4739;DHT22;2383;48.632;10.156;2022-07-29T15:38:38;24.80;99.90
4739;DHT22;2383;48.632;10.156;2022-07-29T15:42:42;24.60;99.90
4739;DHT22;2383;48.632;10.156;2022-07-29T15:46:45;24.70;99.90
4739;DHT22;2383;48.632;10.156;2022-07-29T15:51:06;24.60;99.90
4739;DHT22;2383;48.632;10.156;2022-07-29T15:55:08;24.70;99.90
4739;DHT22;2383;48.632;10.156;2022-07-29T15:59:10;25.00;99.90
4739;DHT22;2383;48.632;10.156;2022-07-29T16:03:23;25.00;99.90
4739;DHT22;2383;48.632;10.156;2022-07-29T16:07:25;24.90;99.90
4739;DHT22;2383;48.632;10.156;2022-07-29T16:11:33;24.80;99.90
4739;DHT22;2383;48.632;10.156;2022-07-29T16:15:35;25.00;99.90
4739;DHT22;2383;48.632;10.156;2022-07-29T16:19:37;25.00;99.90
4739;DHT22;2383;48.632;10.156;2022-07-29T16:23:39;25.20;99.90
4739;DHT22;2383;48.632;10.156;2022-07-29T16:27:41;25.10;99.90
4739;DHT22;2383;48.632;10.156;2022-07-29T16:31:44;24.60;99.90
4739;DHT22;2383;48.632;10.156;2022-07-29T16:35:46;24.60;99.90
4739;DHT22;2383;48.632;10.156;2022-07-29T16:39:49;24.80;99.90
4739;DHT22;2383;48.632;10.156;2022-07-29T16:43:51;25.00;99.90
4739;DHT22;2383;48.632;10.156;2022-07-29T16:47:53;24.80;99.90
4739;DHT22;2383;48.632;10.156;2022-07-29T16:52:00;24.90;99.90
4739;DHT22;2383;48.632;10.156;2022-07-29T16:56:03;24.70;99.90
4739;DHT22;2383;48.632;10.156;2022-07-29T17:00:09;24.30;99.90
4739;DHT22;2383;48.632;10.156;2022-07-29T17:04:11;24.40;99.90
4739;DHT22;2383;48.632;10.156;2022-07-29T17:08:15;24.50;99.90
4739;DHT22;2383;48.632;10.156;2022-07-29T17:12:20;24.30;99.90
4739;DHT22;2383;48.632;10.156;2022-07-29T17:16:25;24.30;99.90
4739;DHT22;2383;48.632;10.156;2022-07-29T17:20:29;23.90;99.90
4739;DHT22;2383;48.632;10.156;2022-07-29T17:24:33;23.80;99.90
4739;DHT22;2383;48.632;10.156;2022-07-29T17:28:36;24.00;99.90
4739;DHT22;2383;48.632;10.156;2022-07-29T17:32:38;23.00;99.90
4739;DHT22;2383;48.632;10.156;2022-07-29T17:36:40;22.70;99.90
4739;DHT22;2383;48.632;10.156;2022-07-29T17:40:42;22.80;99.90
4739;DHT22;2383;48.632;10.156;2022-07-29T17:44:44;23.10;99.90
4739;DHT22;2383;48.632;10.156;2022-07-29T17:48:46;23.30;99.90
4739;DHT22;2383;48.632;10.156;2022-07-29T17:52:47;23.60;99.90
4739;DHT22;2383;48.632;10.156;2022-07-29T17:56:49;23.70;99.90
4739;DHT22;2383;48.632;10.156;2022-07-29T18:00:51;23.30;99.90
4739;DHT22;2383;48.632;10.156;2022-07-29T18:04:53;23.20;99.90
4739;DHT22;2383;48.632;10.156;2022-07-29T18:08:55;23.40;99.90
4739;DHT22;2383;48.632;10.156;2022-07-29T18:12:58;23.00;99.90
4739;DHT22;2383;48.632;10.156;2022-07-29T18:17:00;23.30;99.90
4739;DHT22;2383;48.632;10.156;2022-07-29T18:21:03;23.10;99.90
4739;DHT22;2383;48.632;10.156;2022-07-29T18:25:06;23.30;99.90
4739;DHT22;2383;48.632;10.156;2022-07-29T18:29:08;23.00;99.90
4739;DHT22;2383;48.632;10.156;2022-07-29T18:33:12;23.10;99.90
4739;DHT22;2383;48.632;10.156;2022-07-29T18:37:22;23.30;99.90
4739;DHT22;2383;48.632;10.156;2022-07-29T18:41:44;23.50;99.90
4739;DHT22;2383;48.632;10.156;2022-07-29T18:45:51;23.70;99.90
4739;DHT22;2383;48.632;10.156;2022-07-29T18:49:52;23.40;99.90
4739;DHT22;2383;48.632;10.156;2022-07-29T18:53:55;23.70;99.90
4739;DHT22;2383;48.632;10.156;2022-07-29T18:57:57;23.60;99.90
4739;DHT22;2383;48.632;10.156;2022-07-29T19:01:59;23.60;99.90
4739;DHT22;2383;48.632;10.156;2022-07-29T19:06:01;23.80;99.90
4739;DHT22;2383;48.632;10.156;2022-07-29T19:10:03;24.10;99.90
4739;DHT22;2383;48.632;10.156;2022-07-29T19:14:06;24.20;99.90
4739;DHT22;2383;48.632;10.156;2022-07-29T19:18:08;23.90;99.90
4739;DHT22;2383;48.632;10.156;2022-07-29T19:22:10;24.10;99.90
4739;DHT22;2383;48.632;10.156;2022-07-29T19:26:13;23.80;99.90
4739;DHT22;2383;48.632;10.156;2022-07-29T19:30:21;23.90;99.90
4739;DHT22;2383;48.632;10.156;2022-07-29T19:34:25;24.20;99.90
4739;DHT22;2383;48.632;10.156;2022-07-29T19:38:27;23.90;99.90
4739;DHT22;2383;48.632;10.156;2022-07-29T19:42:31;24.30;99.90
4739;DHT22;2383;48.632;10.156;2022-07-29T19:46:33;24.20;99.90
4739;DHT22;2383;48.632;10.156;2022-07-29T19:50:35;23.90;99.90
4739;DHT22;2383;48.632;10.156;2022-07-29T19:54:37;23.80;99.90
4739;DHT22;2383;48.632;10.156;2022-07-29T19:58:39;23.60;99.90
4739;DHT22;2383;48.632;10.156;2022-07-29T20:02:41;22.50;99.90
4739;DHT22;2383;48.632;10.156;2022-07-29T20:06:43;22.10;99.90
4739;DHT22;2383;48.632;10.156;2022-07-29T20:10:45;21.90;99.90
4739;DHT22;2383;48.632;10.156;2022-07-29T20:14:49;22.10;99.90
4739;DHT22;2383;48.632;10.156;2022-07-29T20:18:51;22.60;99.90
4739;DHT22;2383;48.632;10.156;2022-07-29T20:22:53;23.30;99.90
4739;DHT22;2383;48.632;10.156;2022-07-29T20:26:55;23.60;99.90
4739;DHT22;2383;48.632;10.156;2022-07-29T20:30:57;23.00;99.90
4739;DHT22;2383;48.632;10.156;2022-07-29T20:34:59;23.50;99.90
4739;DHT22;2383;48.632;10.156;2022-07-29T20:39:01;23.10;99.90
4739;DHT22;2383;48.632;10.156;2022-07-29T20:43:03;23.30;99.90
4739;DHT22;2383;48.632;10.156;2022-07-29T20:47:06;23.20;99.90
4739;DHT22;2383;48.632;10.156;2022-07-29T20:51:08;23.30;99.90
4739;DHT22;2383;48.632;10.156;2022-07-29T20:55:10;23.50;99.90
4739;DHT22;2383;48.632;10.156;2022-07-29T20:59:12;23.60;99.90
4739;DHT22;2383;48.632;10.156;2022-07-29T21:03:14;23.30;99.90
4739;DHT22;2383;48.632;10.156;2022-07-29T21:07:18;23.50;99.90
4739;DHT22;2383;48.632;10.156;2022-07-29T21:11:20;23.40;99.90
4739;DHT22;2383;48.632;10.156;2022-07-29T21:15:42;22.60;99.90
4739;DHT22;2383;48.632;10.156;2022-07-29T21:19:46;21.60;99.90
4739;DHT22;2383;48.632;10.156;2022-07-29T21:23:48;21.50;99.90
4739;DHT22;2383;48.632;10.156;2022-07-29T21:27:50;21.70;99.90
4739;DHT22;2383;48.632;10.156;2022-07-29T21:32:11;22.40;99.90
4739;DHT22;2383;48.632;10.156;2022-07-29T21:36:13;23.20;99.90
4739;DHT22;2383;48.632;10.156;2022-07-29T21:40:36;23.70;99.90
4739;DHT22;2383;48.632;10.156;2022-07-29T21:44:38;24.10;99.90
4739;DHT22;2383;48.632;10.156;2022-07-29T21:48:41;24.20;99.90
4739;DHT22;2383;48.632;10.156;2022-07-29T21:52:45;24.40;99.90
4739;DHT22;2383;48.632;10.156;2022-07-29T21:56:47;24.50;99.90
4739;DHT22;2383;48.632;10.156;2022-07-29T22:00:51;24.10;99.90
4739;DHT22;2383;48.632;10.156;2022-07-29T22:04:54;24.20;99.90
4739;DHT22;2383;48.632;10.156;2022-07-29T22:08:56;24.10;99.90
4739;DHT22;2383;48.632;10.156;2022-07-29T22:12:59;24.20;99.90
4739;DHT22;2383;48.632;10.156;2022-07-29T22:17:01;24.40;99.90
4739;DHT22;2383;48.632;10.156;2022-07-29T22:21:03;24.20;99.90
4739;DHT22;2383;48.632;10.156;2022-07-29T22:25:06;23.90;99.90
4739;DHT22;2383;48.632;10.156;2022-07-29T22:29:08;23.90;99.90
4739;DHT22;2383;48.632;10.156;2022-07-29T22:33:12;23.80;99.90
4739;DHT22;2383;48.632;10.156;2022-07-29T22:37:18;23.90;99.90
4739;DHT22;2383;48.632;10.156;2022-07-29T22:41:23;23.80;99.90
4739;DHT22;2383;48.632;10.156;2022-07-29T22:45:25;23.60;99.90
4739;DHT22;2383;48.632;10.156;2022-07-29T22:49:26;23.40;99.90
4739;DHT22;2383;48.632;10.156;2022-07-29T22:53:28;23.30;99.90
4739;DHT22;2383;48.632;10.156;2022-07-29T22:57:30;23.30;99.90
4739;DHT22;2383;48.632;10.156;2022-07-29T23:01:32;23.30;99.90
4739;DHT22;2383;48.632;10.156;2022-07-29T23:05:38;23.30;99.90
4739;DHT22;2383;48.632;10.156;2022-07-29T23:09:40;23.20;99.90
4739;DHT22;2383;48.632;10.156;2022-07-29T23:13:42;23.50;99.90
4739;DHT22;2383;48.632;10.156;2022-07-29T23:17:43;23.50;99.90
4739;DHT22;2383;48.632;10.156;2022-07-29T23:21:45;23.40;99.90
4739;DHT22;2383;48.632;10.156;2022-07-29T23:25:47;23.20;99.90
4739;DHT22;2383;48.632;10.156;2022-07-29T23:29:50;22.90;99.90
4739;DHT22;2383;48.632;10.156;2022-07-29T23:33:51;22.70;99.90
4739;DHT22;2383;48.632;10.156;2022-07-29T23:37:53;22.70;99.90
4739;DHT22;2383;48.632;10.156;2022-07-29T23:42:07;22.40;99.90
4739;DHT22;2383;48.632;10.156;2022-07-29T23:46:09;22.40;99.90
4739;DHT22;2383;48.632;10.156;2022-07-29T23:50:12;22.50;99.90
4739;DHT22;2383;48.632;10.156;2022-07-29T23:54:14;22.30;99.90
4739;DHT22;2383;48.632;10.156;2022-07-29T23:58:16;22.40;99.90
